createdAt,value
2022-09-25T00:02:05.182Z,100641.69
2022-09-25T00:04:32.629Z,100639.25
2022-09-25T00:07:00.333Z,100637.22
2022-09-25T00:09:27.826Z,100645.25
2022-09-25T00:11:55.278Z,100630.09
2022-09-25T00:14:23.214Z,100636.03
2022-09-25T00:16:50.990Z,100636.03
2022-09-25T00:19:40.645Z,100633.50
2022-09-25T00:22:08.453Z,100634.56
2022-09-25T00:24:35.895Z,100636.16
2022-09-25T00:27:03.620Z,100637.78
2022-09-25T00:29:31.180Z,100636.22
2022-09-25T00:31:58.798Z,100640.25
2022-09-25T00:34:26.276Z,100637.59
2022-09-25T00:36:53.843Z,100638.31
2022-09-25T00:39:21.328Z,100638.81
2022-09-25T00:41:48.852Z,100639.38
2022-09-25T00:44:35.288Z,100639.97
2022-09-25T00:47:03.534Z,100633.84
2022-09-25T00:49:31.009Z,100640.72
2022-09-25T00:51:59.939Z,100640.50
2022-09-25T00:54:31.660Z,100641.69
2022-09-25T00:57:01.401Z,100648.53
2022-09-25T00:59:30.168Z,100639.78
2022-09-25T01:01:58.202Z,100638.56
2022-09-25T01:04:25.991Z,100640.50
2022-09-25T01:06:54.884Z,100643.13
2022-09-25T01:09:22.284Z,100647.81
2022-09-25T01:11:49.909Z,100644.91
2022-09-25T01:14:17.459Z,100640.38
2022-09-25T01:16:47.024Z,100647.81
2022-09-25T01:19:23.778Z,100648.31
2022-09-25T01:22:03.839Z,100640.84
2022-09-25T01:24:39.021Z,100639.50
2022-09-25T01:27:37.687Z,100646.50
2022-09-25T01:30:08.053Z,100642.06
2022-09-25T01:32:51.768Z,100642.50
2022-09-25T01:35:35.710Z,100641.31
2022-09-25T01:38:03.173Z,100633.97
2022-09-25T01:40:33.657Z,100639.75
2022-09-25T01:43:14.891Z,100640.97
2022-09-25T01:45:47.290Z,100646.25
2022-09-25T01:48:15.178Z,100647.22
2022-09-25T01:50:53.609Z,100643.94
2022-09-25T01:53:22.897Z,100647.31
2022-09-25T01:55:54.842Z,100638.19
2022-09-25T01:58:25.455Z,100630.38
2022-09-25T02:01:06.858Z,100637.69
2022-09-25T02:03:39.267Z,100640.97
2022-09-25T02:06:07.197Z,100645.75
2022-09-25T02:08:36.206Z,100639.50
2022-09-25T02:11:06.582Z,100637.84
2022-09-25T02:13:50.729Z,100638.06
2022-09-25T02:16:28.490Z,100644.09
2022-09-25T02:19:14.615Z,100638.06
2022-09-25T02:21:54.534Z,100642.50
2022-09-25T02:24:25.260Z,100641.06
2022-09-25T02:26:52.937Z,100638.19
2022-09-25T02:29:20.645Z,100650.56
2022-09-25T02:31:48.153Z,100648.75
2022-09-25T02:34:15.629Z,100648.03
2022-09-25T02:36:43.961Z,100650.53
2022-09-25T02:39:11.373Z,100651.50
2022-09-25T02:41:54.907Z,100648.97
2022-09-25T02:44:28.159Z,100649.25
2022-09-25T02:47:08.146Z,100648.75
2022-09-25T02:49:40.851Z,100657.16
2022-09-25T02:52:12.250Z,100656.72
2022-09-25T02:54:42.052Z,100657.38
2022-09-25T02:57:12.913Z,100656.09
2022-09-25T02:59:43.510Z,100655.63
2022-09-25T03:02:11.889Z,100653.69
2022-09-25T03:04:39.830Z,100658.88
2022-09-25T03:07:07.825Z,100664.75
2022-09-25T03:09:36.950Z,100674.63
2022-09-25T03:12:07.349Z,100674.59
2022-09-25T03:14:35.527Z,100676.28
2022-09-25T03:17:03.947Z,100674.63
2022-09-25T03:19:32.025Z,100674.97
2022-09-25T03:21:59.492Z,100674.13
2022-09-25T03:24:26.930Z,100678.09
2022-09-25T03:26:54.437Z,100680.75
2022-09-25T03:29:22.869Z,100678.44
2022-09-25T03:31:50.354Z,100689.75
2022-09-25T03:34:18.293Z,100696.56
2022-09-25T03:36:47.769Z,100694.53
2022-09-25T03:39:15.679Z,100697.41
2022-09-25T03:41:44.189Z,100697.28
2022-09-25T03:44:11.982Z,100701.00
2022-09-25T03:46:39.610Z,100693.31
2022-09-25T03:49:07.771Z,100697.75
2022-09-25T03:51:35.404Z,100699.09
2022-09-25T03:54:04.304Z,100703.19
2022-09-25T03:56:32.779Z,100702.94
2022-09-25T03:59:00.272Z,100695.53
2022-09-25T04:01:28.779Z,100698.59
2022-09-25T04:03:56.581Z,100696.31
2022-09-25T04:06:25.753Z,100692.34
2022-09-25T04:08:53.357Z,100693.59
2022-09-25T04:11:21.294Z,100692.69
2022-09-25T04:13:48.982Z,100693.59
2022-09-25T04:16:19.558Z,100696.09
2022-09-25T04:18:47.218Z,100699.84
2022-09-25T04:21:14.659Z,100701.16
2022-09-25T04:23:43.047Z,100700.94
2022-09-25T04:26:10.479Z,100711.75
2022-09-25T04:28:37.922Z,100717.44
2022-09-25T04:31:05.678Z,100720.50
2022-09-25T04:33:48.384Z,100713.06
2022-09-25T04:36:16.480Z,100717.88
2022-09-25T04:38:44.327Z,100710.09
2022-09-25T04:41:12.228Z,100711.53
2022-09-25T04:43:42.901Z,100714.91
2022-09-25T04:46:14.229Z,100719.63
2022-09-25T04:48:45.429Z,100722.50
2022-09-25T04:51:12.946Z,100717.19
2022-09-25T04:53:41.061Z,100726.84
2022-09-25T04:56:13.956Z,100724.19
2022-09-25T04:58:46.477Z,100729.59
2022-09-25T05:01:14.023Z,100728.28
2022-09-25T05:03:41.668Z,100720.81
2022-09-25T05:06:09.235Z,100725.97
2022-09-25T05:08:36.727Z,100732.50
2022-09-25T05:11:04.452Z,100734.31
2022-09-25T05:13:32.045Z,100734.44
2022-09-25T05:15:59.810Z,100739.09
2022-09-25T05:18:27.305Z,100743.94
2022-09-25T05:20:55.290Z,100738.50
2022-09-25T05:23:24.166Z,100740.81
2022-09-25T05:25:55.460Z,100749.25
2022-09-25T05:28:23.694Z,100736.91
2022-09-25T05:30:51.446Z,100746.41
2022-09-25T05:33:21.747Z,100731.03
2022-09-25T05:35:49.489Z,100738.63
2022-09-25T05:38:17.469Z,100743.88
2022-09-25T05:40:45.158Z,100746.63
2022-09-25T05:43:12.819Z,100742.88
2022-09-25T05:45:40.417Z,100755.06
2022-09-25T05:48:08.190Z,100751.97
2022-09-25T05:50:36.404Z,100748.38
2022-09-25T05:53:04.542Z,100748.06
2022-09-25T05:55:32.438Z,100762.75
2022-09-25T05:58:00.738Z,100755.28
2022-09-25T06:00:28.350Z,100770.09
2022-09-25T06:02:55.702Z,100767.34
2022-09-25T06:05:23.112Z,100773.22
2022-09-25T06:07:56.692Z,100768.97
2022-09-25T06:10:27.793Z,100777.06
2022-09-25T06:13:01.483Z,100778.66
2022-09-25T06:15:36.913Z,100781.81
2022-09-25T06:18:08.818Z,100781.34
2022-09-25T06:20:36.663Z,100786.06
2022-09-25T06:23:03.997Z,100790.28
2022-09-25T06:25:32.678Z,100782.81
2022-09-25T06:28:00.505Z,100778.13
2022-09-25T06:30:31.126Z,100782.41
2022-09-25T06:32:58.546Z,100781.31
2022-09-25T06:35:26.170Z,100783.97
2022-09-25T06:37:56.644Z,100782.41
2022-09-25T06:40:24.715Z,100786.00
2022-09-25T06:42:55.644Z,100794.84
2022-09-25T06:45:23.133Z,100798.34
2022-09-25T06:47:50.632Z,100790.47
2022-09-25T06:50:18.034Z,100780.22
2022-09-25T06:52:46.223Z,100794.19
2022-09-25T06:55:13.776Z,100792.47
2022-09-25T06:57:41.106Z,100795.97
2022-09-25T07:00:08.888Z,100799.59
2022-09-25T07:02:55.091Z,100795.78
2022-09-25T07:05:22.604Z,100796.34
2022-09-25T07:07:50.004Z,100800.75
2022-09-25T07:10:17.508Z,100802.56
2022-09-25T07:12:45.068Z,100801.59
2022-09-25T07:15:12.613Z,100795.69
2022-09-25T07:17:43.367Z,100792.59
2022-09-25T07:20:12.815Z,100797.28
2022-09-25T07:22:40.253Z,100778.75
2022-09-25T07:25:07.861Z,100787.78
2022-09-25T07:27:35.316Z,100766.66
2022-09-25T07:30:03.300Z,100784.69
2022-09-25T07:32:31.861Z,100774.47
2022-09-25T07:34:59.353Z,100773.41
2022-09-25T07:37:26.790Z,100773.06
2022-09-25T07:40:01.548Z,100768.59
2022-09-25T12:41:58.078Z,100736.66
2022-09-25T12:44:35.642Z,100736.69
2022-09-25T12:47:04.672Z,100731.88
2022-09-25T12:49:37.361Z,100729.09
2022-09-25T12:52:11.710Z,100731.66
2022-09-25T12:54:47.937Z,100733.56
2022-09-25T12:57:18.199Z,100730.56
2022-09-25T12:59:49.601Z,100723.44
2022-09-25T13:02:28.500Z,100723.97
2022-09-25T13:04:55.997Z,100720.09
2022-09-25T13:07:41.503Z,100725.56
2022-09-25T13:10:28.975Z,100717.75
2022-09-25T13:12:58.605Z,100722.31
2022-09-25T13:15:30.542Z,100716.47
2022-09-25T13:17:59.296Z,100714.78
2022-09-25T13:20:26.548Z,100711.97
2022-09-25T13:22:57.539Z,100704.06
2022-09-25T13:25:25.538Z,100714.84
2022-09-25T13:27:54.266Z,100715.25
2022-09-25T13:30:22.010Z,100707.94
2022-09-25T13:32:50.452Z,100722.50
2022-09-25T13:35:19.777Z,100713.28
2022-09-25T13:37:47.477Z,100715.34
2022-09-25T13:40:40.190Z,100720.31
2022-09-25T13:43:18.496Z,100715.66
2022-09-25T13:45:45.967Z,100718.47
2022-09-25T13:48:15.792Z,100727.22
2022-09-25T13:50:44.205Z,100720.72
2022-09-25T13:53:17.736Z,100725.38
2022-09-25T13:55:48.208Z,100725.78
2022-09-25T13:58:19.117Z,100728.78
2022-09-25T14:00:50.398Z,100725.25
2022-09-25T14:03:32.437Z,100728.81
2022-09-25T14:06:00.141Z,100720.25
2022-09-25T14:08:28.179Z,100721.94
2022-09-25T14:10:55.951Z,100716.44
2022-09-25T14:13:25.354Z,100721.50
2022-09-25T14:15:54.958Z,100723.75
2022-09-25T14:18:24.644Z,100725.06
2022-09-25T14:20:52.382Z,100723.53
2022-09-25T14:23:24.517Z,100721.63
2022-09-25T14:25:58.424Z,100716.69
2022-09-25T14:28:27.117Z,100723.34
2022-09-25T14:31:14.831Z,100724.09
2022-09-25T14:33:49.420Z,100725.13
2022-09-25T14:36:26.937Z,100719.47
2022-09-25T14:39:01.313Z,100727.88
2022-09-25T14:41:41.945Z,100731.63
2022-09-25T14:44:27.929Z,100732.72
2022-09-25T14:46:55.371Z,100727.50
2022-09-25T14:49:24.089Z,100725.28
2022-09-25T14:51:51.517Z,100727.66
2022-09-25T14:54:19.772Z,100735.75
2022-09-25T14:56:50.427Z,100733.16
2022-09-25T14:59:19.688Z,100734.38
2022-09-25T15:01:49.677Z,100731.88
2022-09-25T15:04:30.351Z,100729.69
2022-09-25T15:07:01.943Z,100738.56
2022-09-25T15:09:29.658Z,100727.06
2022-09-25T15:11:56.972Z,100726.03
2022-09-25T15:14:24.731Z,100734.38
2022-09-25T15:17:10.713Z,100743.88
2022-09-25T15:19:40.270Z,100734.97
2022-09-25T15:22:11.662Z,100741.38
2022-09-25T15:24:39.671Z,100740.63
2022-09-25T15:27:07.089Z,100735.63
2022-09-25T15:29:38.322Z,100728.59
2022-09-25T15:32:06.557Z,100727.75
2022-09-25T15:34:34.117Z,100735.91
2022-09-25T15:37:25.988Z,100724.69
2022-09-25T15:39:53.537Z,100735.38
2022-09-25T15:42:22.233Z,100734.44
2022-09-25T15:44:49.764Z,100734.81
2022-09-25T15:47:35.215Z,100736.22
2022-09-25T15:50:06.402Z,100732.06
2022-09-25T15:52:34.707Z,100734.28
2022-09-25T15:55:03.294Z,100732.66
2022-09-25T15:57:30.881Z,100734.06
2022-09-25T16:00:17.023Z,100731.25
2022-09-25T16:03:15.239Z,100730.16
2022-09-25T16:05:45.113Z,100729.59
2022-09-25T16:08:15.653Z,100733.22
2022-09-25T16:10:49.070Z,100729.63
2022-09-25T16:13:20.833Z,100734.91
2022-09-25T16:15:51.966Z,100736.03
2022-09-25T16:18:19.437Z,100740.50
2022-09-25T16:20:47.065Z,100730.41
2022-09-25T16:23:20.919Z,100735.72
2022-09-25T16:25:48.236Z,100740.72
2022-09-25T16:28:17.533Z,100738.22
2022-09-25T16:30:57.121Z,100749.69
2022-09-25T16:33:29.107Z,100758.03
2022-09-25T16:36:13.093Z,100757.22
2022-09-25T16:39:04.568Z,100751.38
2022-09-25T16:41:32.473Z,100745.22
2022-09-25T16:44:14.104Z,100752.19
2022-09-25T16:46:42.288Z,100748.84
2022-09-25T16:49:09.822Z,100749.94
2022-09-25T16:51:37.191Z,100749.94
2022-09-25T16:54:08.211Z,100750.22
2022-09-25T16:56:35.517Z,100749.38
2022-09-25T16:59:02.856Z,100744.63
2022-09-25T17:01:30.414Z,100744.59
2022-09-25T17:04:00.081Z,100744.91
2022-09-25T17:06:29.262Z,100747.38
2022-09-25T17:08:56.853Z,100754.34
2022-09-25T17:11:24.383Z,100745.69
2022-09-25T17:13:52.129Z,100751.84
2022-09-25T17:16:19.581Z,100746.25
2022-09-25T17:18:47.006Z,100750.09
2022-09-25T17:21:15.231Z,100748.47
2022-09-25T17:23:43.075Z,100750.59
2022-09-25T17:26:23.395Z,100736.47
2022-09-25T17:28:51.318Z,100738.19
2022-09-25T17:31:20.325Z,100737.59
2022-09-25T17:33:49.579Z,100739.56
2022-09-25T17:36:16.899Z,100743.16
2022-09-25T17:38:44.997Z,100741.50
2022-09-25T17:41:17.632Z,100736.75
2022-09-25T17:43:46.591Z,100738.09
2022-09-25T17:46:19.141Z,100740.31
2022-09-25T17:48:51.578Z,100733.38
2022-09-25T17:51:26.481Z,100732.81
2022-09-25T17:53:54.432Z,100735.19
2022-09-25T17:56:22.268Z,100728.25
2022-09-25T17:58:51.266Z,100735.22
2022-09-25T18:01:22.557Z,100732.91
2022-09-25T18:03:52.155Z,100737.03
2022-09-25T18:06:23.165Z,100738.75
2022-09-25T18:08:51.220Z,100737.56
2022-09-25T18:11:20.856Z,100738.44
2022-09-25T18:13:54.505Z,100738.44
2022-09-25T18:16:23.477Z,100745.66
2022-09-25T18:19:10.319Z,100742.06
2022-09-25T18:21:56.635Z,100736.19
2022-09-25T18:24:24.723Z,100733.19
2022-09-25T18:26:52.724Z,100740.09
2022-09-25T18:29:20.894Z,100734.13
2022-09-25T18:31:48.389Z,100741.59
2022-09-25T18:34:16.002Z,100735.66
2022-09-25T18:36:43.882Z,100732.88
2022-09-25T18:39:13.877Z,100737.31
2022-09-25T18:41:44.845Z,100740.94
2022-09-25T18:44:13.278Z,100749.66
2022-09-25T18:46:40.809Z,100749.16
2022-09-25T18:49:08.789Z,100753.09
2022-09-25T18:51:36.515Z,100755.03
2022-09-25T18:54:04.126Z,100755.84
2022-09-25T18:56:34.544Z,100751.06
2022-09-25T18:59:04.021Z,100748.34
2022-09-25T19:01:31.510Z,100749.16
2022-09-25T19:03:59.004Z,100750.31
2022-09-25T19:06:26.503Z,100741.94
2022-09-25T19:08:56.021Z,100756.09
2022-09-25T19:11:27.603Z,100749.41
2022-09-25T19:13:56.591Z,100753.84
2022-09-25T19:16:24.273Z,100747.06
2022-09-25T19:18:51.826Z,100766.00
2022-09-25T19:21:22.942Z,100757.06
2022-09-25T19:23:50.473Z,100754.53
2022-09-25T19:26:19.817Z,100747.59
2022-09-25T19:28:48.084Z,100754.84
2022-09-25T19:31:19.492Z,100762.66
2022-09-25T19:33:46.960Z,100761.00
2022-09-25T19:36:15.696Z,100751.25
2022-09-25T19:38:43.739Z,100748.25
2022-09-25T19:41:17.861Z,100753.25
2022-09-25T19:43:45.540Z,100757.19
2022-09-25T19:46:14.658Z,100761.34
2022-09-25T19:48:43.793Z,100754.38
2022-09-25T19:51:11.251Z,100765.56
2022-09-25T19:53:40.403Z,100774.94
2022-09-25T19:56:08.025Z,100774.72
2022-09-25T19:58:36.409Z,100769.38
2022-09-25T20:01:13.812Z,100767.97
2022-09-25T20:03:42.815Z,100768.78
2022-09-25T20:06:10.239Z,100762.69
2022-09-25T20:08:37.838Z,100761.56
2022-09-25T20:11:14.764Z,100760.16
2022-09-25T20:13:42.242Z,100758.75
2022-09-25T20:16:10.949Z,100754.03
2022-09-25T20:18:38.512Z,100757.06
2022-09-25T20:21:06.330Z,100758.25
2022-09-25T20:23:34.453Z,100754.97
2022-09-25T20:26:12.136Z,100757.22
2022-09-25T20:28:40.002Z,100751.09
2022-09-25T20:31:09.999Z,100738.84
2022-09-25T20:33:38.732Z,100741.34
2022-09-25T20:36:06.739Z,100745.69
2022-09-25T20:38:36.122Z,100755.22
2022-09-25T20:41:04.239Z,100746.84
2022-09-25T20:43:32.060Z,100750.47
2022-09-25T20:46:01.157Z,100742.41
2022-09-25T20:48:28.622Z,100737.09
2022-09-25T20:50:56.037Z,100732.78
2022-09-25T20:53:23.834Z,100741.97
2022-09-25T20:55:51.577Z,100742.25
2022-09-25T20:58:19.273Z,100751.72
2022-09-25T21:00:47.011Z,100744.63
2022-09-25T21:03:14.351Z,100743.00
2022-09-25T21:05:43.525Z,100752.03
2022-09-25T21:08:11.535Z,100756.25
2022-09-25T21:10:40.718Z,100740.34
2022-09-25T21:13:08.910Z,100738.94
2022-09-25T21:15:37.844Z,100738.44
2022-09-25T21:18:05.423Z,100730.97
2022-09-25T21:20:34.941Z,100730.91
2022-09-25T21:23:02.384Z,100730.97
2022-09-25T21:25:29.921Z,100733.78
2022-09-25T21:27:57.597Z,100730.44
2022-09-25T21:30:25.791Z,100734.31
2022-09-25T21:32:54.426Z,100729.50
2022-09-25T21:35:21.753Z,100728.47
2022-09-25T21:37:49.503Z,100734.69
2022-09-25T21:40:17.148Z,100727.16
2022-09-25T21:42:44.504Z,100722.09
2022-09-25T21:45:12.016Z,100725.19
2022-09-25T21:47:39.467Z,100730.78
2022-09-25T21:50:07.303Z,100718.50
2022-09-25T21:52:35.001Z,100716.03
2022-09-25T21:55:02.263Z,100713.53
2022-09-25T21:57:31.357Z,100713.53
2022-09-25T21:59:58.891Z,100723.78
2022-09-25T22:02:28.968Z,100714.31
2022-09-25T22:04:56.429Z,100724.06
2022-09-25T22:07:24.082Z,100708.72
2022-09-25T22:09:52.756Z,100709.84
2022-09-25T22:12:20.011Z,100708.75
2022-09-25T22:14:47.323Z,100708.16
2022-09-25T22:17:14.925Z,100705.44
2022-09-25T22:19:42.501Z,100703.72
2022-09-25T22:22:09.794Z,100712.66
2022-09-25T22:24:38.095Z,100707.91
2022-09-25T22:27:05.745Z,100704.53
2022-09-25T22:29:35.173Z,100698.09
2022-09-25T22:32:02.857Z,100705.34
2022-09-25T22:34:30.361Z,100701.41
2022-09-25T22:37:00.068Z,100699.66
2022-09-25T22:39:28.318Z,100699.84
2022-09-25T22:41:56.125Z,100695.66
2022-09-25T22:44:23.798Z,100688.66
2022-09-25T22:46:51.356Z,100699.56
2022-09-25T22:49:18.786Z,100696.25
2022-09-25T22:51:46.197Z,100697.91
2022-09-25T22:54:16.907Z,100702.47
2022-09-25T22:56:44.607Z,100688.28
2022-09-25T22:59:12.940Z,100691.69
2022-09-25T23:01:42.845Z,100702.50
2022-09-25T23:04:11.365Z,100699.44
2022-09-25T23:06:39.816Z,100700.69
2022-09-25T23:09:08.112Z,100699.59
2022-09-25T23:11:38.567Z,100705.25
2022-09-25T23:14:09.862Z,100701.53
2022-09-25T23:16:38.082Z,100702.34
2022-09-25T23:19:05.595Z,100699.78
2022-09-25T23:21:33.237Z,100704.00
2022-09-25T23:24:02.864Z,100702.56
2022-09-25T23:26:30.435Z,100704.25
2022-09-25T23:28:59.170Z,100692.00
2022-09-25T23:31:26.948Z,100687.94
2022-09-25T23:33:54.308Z,100692.63
2022-09-25T23:36:23.549Z,100688.41
2022-09-25T23:38:51.999Z,100697.13
2022-09-25T23:41:23.466Z,100692.69
2022-09-25T23:43:51.118Z,100683.09
2022-09-25T23:46:18.946Z,100690.94
2022-09-25T23:48:46.705Z,100689.81
2022-09-25T23:51:14.628Z,100688.72
2022-09-25T23:53:42.620Z,100701.00
2022-09-25T23:56:11.809Z,100693.41
2022-09-25T23:58:39.439Z,100687.63
